EDT,Max TemperatureF,Mean TemperatureF,Min TemperatureF,Max Dew PointF,MeanDew PointF,Min DewpointF,Max Humidity, Mean Humidity, Min Humidity, Max Sea Level PressureIn, Mean Sea Level PressureIn, Min Sea Level PressureIn, Max VisibilityMiles, Mean VisibilityMiles, Min VisibilityMiles, Max Wind SpeedMPH, Mean Wind SpeedMPH, Max Gust SpeedMPH,PrecipitationIn, CloudCover, Events, WindDirDegrees
2013-6-1,89,78,66,68,64,61,84,66,45,29.99,29.95,29.90,10,10,9,16,7,28,0.00,0,,211
2013-6-2,84,75,66,65,63,61,88,75,51,29.91,29.86,29.81,10,10,8,16,10,28,0.00,1,,203
2013-6-3,73,68,64,67,64,61,97,90,81,29.86,29.83,29.79,10,6,1,14,7,23,0.96,8,Rain-Thunderstorm,211
2013-6-4,73,61,50,64,46,41,93,58,35,30.08,29.92,29.81,10,10,3,14,6,20,0.00,2,,307
2013-6-5,75,58,44,52,45,41,97,77,32,30.18,30.14,30.10,10,6,0,10,1,,0.00,0,Fog,184
2013-6-6,75,60,46,56,49,46,97,77,38,30.20,30.16,30.10,10,7,0,10,2,,0.00,0,Fog,145
2013-6-7,62,58,55,59,56,52,100,92,78,30.08,29.94,29.78,10,4,1,9,5,,3.15,8,Rain,72
2013-6-8,79,66,55,63,57,55,97,87,58,30.01,29.73,29.57,10,5,0,13,5,21,1.53,6,Fog-Rain-Thunderstorm,311
2013-6-9,82,66,53,59,54,51,97,76,38,30.16,30.08,30.01,10,6,0,9,2,18,0.00,1,Fog,264
2013-6-10,73,62,52,63,56,50,97,88,57,30.19,30.14,30.00,10,4,0,9,2,,0.92,3,Fog-Rain,92
2013-6-11,75,65,55,66,61,54,97,90,71,29.97,29.70,29.55,10,6,1,12,5,17,1.13,8,Rain,203
2013-6-12,73,63,55,57,54,51,97,72,49,29.81,29.65,29.57,10,10,7,16,6,25,0.00,7,,293
2013-6-13,66,57,48,58,53,47,96,88,63,29.83,29.73,29.62,10,8,1,12,2,24,0.24,5,Rain,67
2013-6-14,73,62,53,57,52,46,94,83,51,29.76,29.66,29.59,10,6,2,15,8,26,1.21,6,Rain,31
2013-6-15,80,65,51,53,48,40,96,59,26,29.95,29.88,29.78,10,10,6,10,4,,0.00,0,,293
2013-6-16,78,63,48,62,53,48,97,73,37,29.95,29.88,29.75,10,8,1,13,4,20,0.00,2,,222
2013-6-17,86,70,55,64,58,54,97,78,44,29.92,29.85,29.80,10,7,0,14,3,28,0.04,1,Fog-Rain-Thunderstorm,229
2013-6-18,82,68,55,63,57,54,100,87,44,29.94,29.90,29.85,10,6,0,14,2,17,0.10,4,Fog-Rain,33
2013-6-19,75,63,52,57,52,46,93,72,38,30.15,29.98,29.88,10,10,6,10,6,16,0.03,4,Rain,16
2013-6-20,81,62,46,56,49,46,97,76,34,30.27,30.21,30.17,10,6,0,12,1,18,0.00,0,Fog,206
2013-6-21,82,71,61,61,56,52,83,61,48,30.28,30.25,30.20,10,10,10,15,7,22,0.00,0,,214
2013-6-22,84,72,63,62,57,53,90,63,44,30.24,30.20,30.15,10,10,10,12,6,21,0.00,1,,206
2013-6-23,86,74,64,68,65,61,90,74,53,30.18,30.11,30.04,10,10,10,16,6,24,0.00,0,,203
2013-6-24,95,82,69,72,69,66,93,73,44,30.04,29.97,29.87,10,9,6,13,7,24,0.00,3,Thunderstorm,239
2013-6-25,93,80,68,69,67,65,90,68,44,29.93,29.85,29.75,10,10,6,14,5,20,0.00,1,,234
2013-6-26,90,79,69,72,69,66,93,78,46,29.85,29.78,29.73,10,8,5,15,4,20,0.03,3,Rain,280
2013-6-27,72,69,66,68,65,64,97,92,87,29.85,29.81,29.75,10,4,0,7,2,,0.31,7,Fog-Rain,66
2013-6-28,77,72,66,72,69,65,97,91,79,29.74,29.59,29.54,10,4,0,14,6,23,1.22,8,Fog-Rain-Thunderstorm,171
2013-6-29,81,75,71,70,69,65,94,87,62,29.75,29.61,29.53,10,7,2,15,7,24,0.02,7,Rain,185
2013-6-30,81,75,71,71,69,67,94,86,71,29.95,29.86,29.74,10,8,2,15,6,21,0.18,7,Rain,198